sensor_id;sensor_type;location;lat;lon;timestamp;pressure;altitude;pressure_sealevel;temperature;humidity
16580;BME280;8402;51.466;6.806;2023-09-30T00:01:10;102206.88;;;16.28;84.43
16580;BME280;8402;51.466;6.806;2023-09-30T00:03:41;102214.13;;;16.23;84.46
16580;BME280;8402;51.466;6.806;2023-09-30T00:06:14;102213.63;;;16.21;84.63
16580;BME280;8402;51.466;6.806;2023-09-30T00:08:44;102211.53;;;16.18;84.14
16580;BME280;8402;51.466;6.806;2023-09-30T00:11:17;102216.53;;;16.16;84.61
16580;BME280;8402;51.466;6.806;2023-09-30T00:13:47;102224.22;;;16.14;84.90
16580;BME280;8402;51.466;6.806;2023-09-30T00:16:18;102226.47;;;16.12;85.06
16580;BME280;8402;51.466;6.806;2023-09-30T00:18:48;102217.78;;;16.10;84.67
16580;BME280;8402;51.466;6.806;2023-09-30T00:21:18;102212.91;;;16.07;85.13
16580;BME280;8402;51.466;6.806;2023-09-30T00:23:48;102204.22;;;16.05;85.21
16580;BME280;8402;51.466;6.806;2023-09-30T00:26:20;102211.31;;;16.06;85.01
16580;BME280;8402;51.466;6.806;2023-09-30T00:28:50;102207.28;;;16.04;85.07
16580;BME280;8402;51.466;6.806;2023-09-30T00:31:21;102204.84;;;16.02;85.35
16580;BME280;8402;51.466;6.806;2023-09-30T00:33:50;102205.19;;;16.01;85.55
16580;BME280;8402;51.466;6.806;2023-09-30T00:36:21;102218.03;;;16.00;85.80
16580;BME280;8402;51.466;6.806;2023-09-30T00:38:51;102221.91;;;15.99;85.59
16580;BME280;8402;51.466;6.806;2023-09-30T00:41:24;102223.50;;;16.00;85.83
16580;BME280;8402;51.466;6.806;2023-09-30T00:43:54;102218.03;;;16.00;86.06
16580;BME280;8402;51.466;6.806;2023-09-30T00:46:27;102207.09;;;16.00;85.82
16580;BME280;8402;51.466;6.806;2023-09-30T00:48:59;102214.19;;;16.01;85.65
16580;BME280;8402;51.466;6.806;2023-09-30T00:51:30;102227.09;;;16.01;85.66
16580;BME280;8402;51.466;6.806;2023-09-30T00:54:01;102225.16;;;16.01;85.50
16580;BME280;8402;51.466;6.806;2023-09-30T00:56:40;102229.81;;;16.01;85.58
16580;BME280;8402;51.466;6.806;2023-09-30T00:59:13;102240.13;;;16.04;85.85
16580;BME280;8402;51.466;6.806;2023-09-30T01:01:44;102248.81;;;16.06;86.22
16580;BME280;8402;51.466;6.806;2023-09-30T01:04:14;102255.63;;;16.08;86.22
16580;BME280;8402;51.466;6.806;2023-09-30T01:06:45;102238.56;;;16.11;86.00
16580;BME280;8402;51.466;6.806;2023-09-30T01:09:15;102212.56;;;16.00;86.21
16580;BME280;8402;51.466;6.806;2023-09-30T01:11:47;102215.63;;;15.99;86.24
16580;BME280;8402;51.466;6.806;2023-09-30T01:14:25;102214.31;;;15.96;86.71
16580;BME280;8402;51.466;6.806;2023-09-30T01:16:55;102217.22;;;16.00;86.72
16580;BME280;8402;51.466;6.806;2023-09-30T01:19:24;102219.34;;;16.03;86.53
16580;BME280;8402;51.466;6.806;2023-09-30T01:22:00;102219.03;;;16.04;86.64
16580;BME280;8402;51.466;6.806;2023-09-30T01:24:38;102242.53;;;16.05;86.50
16580;BME280;8402;51.466;6.806;2023-09-30T01:27:09;102251.56;;;16.06;86.40
16580;BME280;8402;51.466;6.806;2023-09-30T01:29:40;102252.38;;;16.06;86.34
16580;BME280;8402;51.466;6.806;2023-09-30T01:32:10;102244.97;;;16.07;86.56
16580;BME280;8402;51.466;6.806;2023-09-30T01:34:41;102244.16;;;16.06;86.26
16580;BME280;8402;51.466;6.806;2023-09-30T01:37:13;102234.34;;;16.05;86.40
16580;BME280;8402;51.466;6.806;2023-09-30T01:39:43;102231.44;;;16.02;85.96
16580;BME280;8402;51.466;6.806;2023-09-30T01:42:13;102238.31;;;15.99;86.46
16580;BME280;8402;51.466;6.806;2023-09-30T01:44:43;102236.72;;;15.98;86.34
16580;BME280;8402;51.466;6.806;2023-09-30T01:47:13;102240.09;;;15.95;86.69
16580;BME280;8402;51.466;6.806;2023-09-30T01:49:43;102239.56;;;15.93;86.46
16580;BME280;8402;51.466;6.806;2023-09-30T01:52:16;102237.47;;;15.90;86.33
16580;BME280;8402;51.466;6.806;2023-09-30T01:54:46;102240.84;;;15.87;86.68
16580;BME280;8402;51.466;6.806;2023-09-30T01:57:15;102244.69;;;15.86;86.86
16580;BME280;8402;51.466;6.806;2023-09-30T01:59:45;102260.63;;;15.84;86.90
16580;BME280;8402;51.466;6.806;2023-09-30T02:02:16;102274.94;;;15.81;86.85
16580;BME280;8402;51.466;6.806;2023-09-30T02:04:46;102274.44;;;15.79;87.09
16580;BME280;8402;51.466;6.806;2023-09-30T02:07:18;102266.84;;;15.76;86.71
16580;BME280;8402;51.466;6.806;2023-09-30T02:09:49;102275.69;;;15.73;86.86
16580;BME280;8402;51.466;6.806;2023-09-30T02:12:18;102266.47;;;15.68;86.85
16580;BME280;8402;51.466;6.806;2023-09-30T02:14:49;102263.88;;;15.63;86.99
16580;BME280;8402;51.466;6.806;2023-09-30T02:17:19;102272.66;;;15.60;86.80
16580;BME280;8402;51.466;6.806;2023-09-30T02:19:49;102266.72;;;15.58;86.99
16580;BME280;8402;51.466;6.806;2023-09-30T02:22:22;102269.56;;;15.53;87.05
16580;BME280;8402;51.466;6.806;2023-09-30T02:24:55;102249.13;;;15.51;87.51
16580;BME280;8402;51.466;6.806;2023-09-30T02:27:24;102250.53;;;15.48;87.55
16580;BME280;8402;51.466;6.806;2023-09-30T02:29:55;102243.75;;;15.46;87.59
16580;BME280;8402;51.466;6.806;2023-09-30T02:32:43;102245.69;;;15.45;87.36
16580;BME280;8402;51.466;6.806;2023-09-30T02:35:16;102241.44;;;15.39;86.96
16580;BME280;8402;51.466;6.806;2023-09-30T02:37:47;102243.50;;;15.33;87.24
16580;BME280;8402;51.466;6.806;2023-09-30T02:40:18;102244.13;;;15.30;87.27
16580;BME280;8402;51.466;6.806;2023-09-30T02:42:51;102245.53;;;15.28;87.06
16580;BME280;8402;51.466;6.806;2023-09-30T02:45:21;102251.00;;;15.28;87.40
16580;BME280;8402;51.466;6.806;2023-09-30T02:47:54;102252.44;;;15.25;87.44
16580;BME280;8402;51.466;6.806;2023-09-30T02:50:25;102265.78;;;15.27;87.39
16580;BME280;8402;51.466;6.806;2023-09-30T02:52:58;102263.38;;;15.25;87.63
16580;BME280;8402;51.466;6.806;2023-09-30T02:55:28;102259.34;;;15.23;87.62
16580;BME280;8402;51.466;6.806;2023-09-30T02:57:58;102256.09;;;15.21;87.45
16580;BME280;8402;51.466;6.806;2023-09-30T03:00:29;102257.53;;;15.18;87.58
16580;BME280;8402;51.466;6.806;2023-09-30T03:03:03;102278.59;;;15.18;87.51
16580;BME280;8402;51.466;6.806;2023-09-30T03:05:33;102274.56;;;15.15;87.46
16580;BME280;8402;51.466;6.806;2023-09-30T03:10:35;102276.75;;;15.13;87.49
16580;BME280;8402;51.466;6.806;2023-09-30T03:13:07;102272.41;;;15.12;87.30
16580;BME280;8402;51.466;6.806;2023-09-30T03:15:37;102276.59;;;15.09;87.08
16580;BME280;8402;51.466;6.806;2023-09-30T03:18:11;102260.78;;;15.06;87.34
16580;BME280;8402;51.466;6.806;2023-09-30T03:20:41;102264.63;;;15.05;87.07
16580;BME280;8402;51.466;6.806;2023-09-30T03:23:12;102266.88;;;15.03;87.23
16580;BME280;8402;51.466;6.806;2023-09-30T03:25:42;102258.47;;;15.00;87.26
16580;BME280;8402;51.466;6.806;2023-09-30T03:28:12;102260.38;;;14.99;87.39
16580;BME280;8402;51.466;6.806;2023-09-30T03:30:42;102259.59;;;14.99;87.51
16580;BME280;8402;51.466;6.806;2023-09-30T03:33:15;102248.66;;;14.99;87.53
16580;BME280;8402;51.466;6.806;2023-09-30T03:35:45;102249.47;;;14.99;87.50
16580;BME280;8402;51.466;6.806;2023-09-30T03:38:15;102256.56;;;15.00;87.59
16580;BME280;8402;51.466;6.806;2023-09-30T03:40:46;102254.31;;;15.02;87.59
16580;BME280;8402;51.466;6.806;2023-09-30T03:43:17;102255.13;;;15.03;87.45
16580;BME280;8402;51.466;6.806;2023-09-30T03:45:47;102250.47;;;15.03;87.47
16580;BME280;8402;51.466;6.806;2023-09-30T03:48:20;102252.88;;;15.05;87.33
16580;BME280;8402;51.466;6.806;2023-09-30T03:50:50;102252.09;;;15.04;87.47
16580;BME280;8402;51.466;6.806;2023-09-30T03:53:20;102248.53;;;15.04;87.22
16580;BME280;8402;51.466;6.806;2023-09-30T03:55:53;102253.22;;;15.03;87.10
16580;BME280;8402;51.466;6.806;2023-09-30T03:58:25;102259.78;;;15.02;86.95
16580;BME280;8402;51.466;6.806;2023-09-30T04:00:54;102264.44;;;15.02;87.03
16580;BME280;8402;51.466;6.806;2023-09-30T04:03:27;102255.94;;;15.03;86.99
16580;BME280;8402;51.466;6.806;2023-09-30T04:06:01;102242.06;;;15.00;86.74
16580;BME280;8402;51.466;6.806;2023-09-30T04:08:33;102238.03;;;14.97;86.96
16580;BME280;8402;51.466;6.806;2023-09-30T04:11:04;102241.88;;;14.96;87.03
16580;BME280;8402;51.466;6.806;2023-09-30T04:13:33;102248.47;;;14.95;86.98
16580;BME280;8402;51.466;6.806;2023-09-30T04:16:03;102257.78;;;14.94;87.18
16580;BME280;8402;51.466;6.806;2023-09-30T04:18:36;102254.53;;;14.92;86.91
16580;BME280;8402;51.466;6.806;2023-09-30T04:21:07;102252.44;;;14.89;86.94
16580;BME280;8402;51.466;6.806;2023-09-30T04:23:38;102250.31;;;14.86;86.87
16580;BME280;8402;51.466;6.806;2023-09-30T04:26:08;102253.97;;;14.81;87.07
16580;BME280;8402;51.466;6.806;2023-09-30T04:28:38;102249.91;;;14.79;86.99
16580;BME280;8402;51.466;6.806;2023-09-30T04:31:08;102253.75;;;14.78;87.07
16580;BME280;8402;51.466;6.806;2023-09-30T04:33:42;102248.91;;;14.75;87.08
16580;BME280;8402;51.466;6.806;2023-09-30T04:36:12;102260.94;;;14.74;86.97
16580;BME280;8402;51.466;6.806;2023-09-30T04:38:42;102260.72;;;14.70;86.94
16580;BME280;8402;51.466;6.806;2023-09-30T04:41:12;102260.84;;;14.65;86.88
16580;BME280;8402;51.466;6.806;2023-09-30T04:43:43;102256.78;;;14.63;87.21
16580;BME280;8402;51.466;6.806;2023-09-30T04:46:13;102271.56;;;14.62;86.99
16580;BME280;8402;51.466;6.806;2023-09-30T04:48:48;102272.19;;;14.58;86.88
16580;BME280;8402;51.466;6.806;2023-09-30T04:51:19;102278.25;;;14.55;87.17
16580;BME280;8402;51.466;6.806;2023-09-30T04:53:49;102281.59;;;14.52;87.18
16580;BME280;8402;51.466;6.806;2023-09-30T04:56:22;102283.00;;;14.50;86.97
16580;BME280;8402;51.466;6.806;2023-09-30T04:58:52;102293.72;;;14.46;86.88
16580;BME280;8402;51.466;6.806;2023-09-30T05:01:22;102297.03;;;14.43;86.97
16580;BME280;8402;51.466;6.806;2023-09-30T05:03:54;102300.06;;;14.42;87.14
16580;BME280;8402;51.466;6.806;2023-09-30T05:06:26;102295.22;;;14.39;86.93
16580;BME280;8402;51.466;6.806;2023-09-30T05:08:56;102299.34;;;14.36;86.75
16580;BME280;8402;51.466;6.806;2023-09-30T05:11:26;102306.53;;;14.32;86.68
16580;BME280;8402;51.466;6.806;2023-09-30T05:13:56;102312.59;;;14.29;86.70
16580;BME280;8402;51.466;6.806;2023-09-30T05:16:26;102302.25;;;14.26;86.91
16580;BME280;8402;51.466;6.806;2023-09-30T05:18:59;102299.53;;;14.26;86.79
16580;BME280;8402;51.466;6.806;2023-09-30T05:21:29;102291.94;;;14.23;87.00
16580;BME280;8402;51.466;6.806;2023-09-30T05:23:59;102300.72;;;14.20;87.09
16580;BME280;8402;51.466;6.806;2023-09-30T05:26:29;102293.16;;;14.17;87.10
16580;BME280;8402;51.466;6.806;2023-09-30T05:28:59;102304.66;;;14.14;87.22
16580;BME280;8402;51.466;6.806;2023-09-30T05:31:29;102308.00;;;14.11;87.37
16580;BME280;8402;51.466;6.806;2023-09-30T05:34:02;102316.19;;;14.11;87.49
16580;BME280;8402;51.466;6.806;2023-09-30T05:36:32;102302.03;;;14.09;87.49
16580;BME280;8402;51.466;6.806;2023-09-30T05:39:02;102303.16;;;14.08;87.35
16580;BME280;8402;51.466;6.806;2023-09-30T05:41:32;102315.16;;;14.07;87.53
16580;BME280;8402;51.466;6.806;2023-09-30T05:44:02;102315.44;;;14.05;87.59
16580;BME280;8402;51.466;6.806;2023-09-30T05:46:32;102316.56;;;14.04;87.42
16580;BME280;8402;51.466;6.806;2023-09-30T05:49:04;102310.91;;;14.00;87.42
16580;BME280;8402;51.466;6.806;2023-09-30T05:51:32;102306.53;;;13.99;87.36
16580;BME280;8402;51.466;6.806;2023-09-30T05:56:37;102306.03;;;13.97;87.28
16580;BME280;8402;51.466;6.806;2023-09-30T05:59:09;102307.94;;;13.97;87.46
16580;BME280;8402;51.466;6.806;2023-09-30T06:01:40;102309.88;;;13.96;87.69
16580;BME280;8402;51.466;6.806;2023-09-30T06:04:13;102303.59;;;13.96;87.52
16580;BME280;8402;51.466;6.806;2023-09-30T06:06:43;102308.25;;;13.95;87.74
16580;BME280;8402;51.466;6.806;2023-09-30T06:09:13;102312.09;;;13.94;87.59
16580;BME280;8402;51.466;6.806;2023-09-30T06:11:43;102306.41;;;13.91;87.92
16580;BME280;8402;51.466;6.806;2023-09-30T06:14:13;102311.06;;;13.90;87.99
16580;BME280;8402;51.466;6.806;2023-09-30T06:16:43;102318.13;;;13.91;88.25
16580;BME280;8402;51.466;6.806;2023-09-30T06:19:17;102317.63;;;13.89;88.77
16580;BME280;8402;51.466;6.806;2023-09-30T06:21:48;102314.09;;;13.89;88.95
16580;BME280;8402;51.466;6.806;2023-09-30T06:24:18;102318.94;;;13.92;89.46
16580;BME280;8402;51.466;6.806;2023-09-30T06:26:49;102311.56;;;13.92;89.98
16580;BME280;8402;51.466;6.806;2023-09-30T06:29:19;102319.97;;;13.96;90.12
16580;BME280;8402;51.466;6.806;2023-09-30T06:31:49;102309.25;;;13.99;91.92
16580;BME280;8402;51.466;6.806;2023-09-30T06:34:21;102311.09;;;14.04;91.78
16580;BME280;8402;51.466;6.806;2023-09-30T06:36:52;102305.88;;;14.08;92.27
16580;BME280;8402;51.466;6.806;2023-09-30T06:39:23;102312.34;;;14.12;92.31
16580;BME280;8402;51.466;6.806;2023-09-30T06:41:53;102318.28;;;14.14;93.36
16580;BME280;8402;51.466;6.806;2023-09-30T06:44:23;102318.84;;;14.16;94.30
16580;BME280;8402;51.466;6.806;2023-09-30T06:46:55;102318.22;;;14.19;94.10
16580;BME280;8402;51.466;6.806;2023-09-30T06:49:27;102327.94;;;14.25;94.76
16580;BME280;8402;51.466;6.806;2023-09-30T06:51:57;102320.47;;;14.30;94.56
16580;BME280;8402;51.466;6.806;2023-09-30T06:54:27;102321.72;;;14.38;95.06
16580;BME280;8402;51.466;6.806;2023-09-30T06:56:57;102314.97;;;14.49;95.26
16580;BME280;8402;51.466;6.806;2023-09-30T06:59:27;102327.81;;;14.63;95.35
16580;BME280;8402;51.466;6.806;2023-09-30T07:01:57;102323.78;;;14.74;95.43
16580;BME280;8402;51.466;6.806;2023-09-30T07:04:30;102320.53;;;14.85;95.48
16580;BME280;8402;51.466;6.806;2023-09-30T07:07:00;102320.94;;;14.93;95.88
16580;BME280;8402;51.466;6.806;2023-09-30T07:09:30;102332.47;;;15.03;95.75
16580;BME280;8402;51.466;6.806;2023-09-30T07:12:03;102335.94;;;15.09;96.00
16580;BME280;8402;51.466;6.806;2023-09-30T07:14:33;102343.72;;;15.16;96.16
16580;BME280;8402;51.466;6.806;2023-09-30T07:17:03;102346.03;;;15.22;95.91
16580;BME280;8402;51.466;6.806;2023-09-30T07:19:36;102342.38;;;15.27;96.93
16580;BME280;8402;51.466;6.806;2023-09-30T07:22:06;102348.84;;;15.31;96.91
16580;BME280;8402;51.466;6.806;2023-09-30T07:24:36;102367.38;;;15.34;97.42
16580;BME280;8402;51.466;6.806;2023-09-30T07:27:06;102374.84;;;15.42;97.71
16580;BME280;8402;51.466;6.806;2023-09-30T07:29:53;102380.81;;;15.58;97.97
16580;BME280;8402;51.466;6.806;2023-09-30T07:32:22;102385.28;;;15.67;97.96
16580;BME280;8402;51.466;6.806;2023-09-30T07:34:55;102395.75;;;15.88;98.33
16580;BME280;8402;51.466;6.806;2023-09-30T07:37:25;102398.13;;;16.03;97.95
16580;BME280;8402;51.466;6.806;2023-09-30T07:39:55;102385.06;;;16.22;97.87
16580;BME280;8402;51.466;6.806;2023-09-30T07:42:25;102393.75;;;16.47;97.71
16580;BME280;8402;51.466;6.806;2023-09-30T07:44:55;102406.44;;;16.65;96.68
16580;BME280;8402;51.466;6.806;2023-09-30T07:47:25;102402.03;;;16.87;96.94
16580;BME280;8402;51.466;6.806;2023-09-30T07:49:58;102403.56;;;17.10;96.52
16580;BME280;8402;51.466;6.806;2023-09-30T07:52:29;102409.94;;;17.37;96.30
16580;BME280;8402;51.466;6.806;2023-09-30T07:54:59;102406.56;;;17.57;95.59
16580;BME280;8402;51.466;6.806;2023-09-30T07:57:30;102405.81;;;17.74;94.70
16580;BME280;8402;51.466;6.806;2023-09-30T08:00:00;102404.53;;;17.88;93.18
16580;BME280;8402;51.466;6.806;2023-09-30T08:02:33;102396.59;;;18.04;92.66
16580;BME280;8402;51.466;6.806;2023-09-30T08:05:09;102409.06;;;18.10;92.17
16580;BME280;8402;51.466;6.806;2023-09-30T08:07:39;102411.47;;;18.29;92.82
16580;BME280;8402;51.466;6.806;2023-09-30T08:10:10;102401.69;;;18.49;91.79
16580;BME280;8402;51.466;6.806;2023-09-30T08:12:44;102412.34;;;18.68;90.87
16580;BME280;8402;51.466;6.806;2023-09-30T08:15:15;102412.47;;;18.80;90.23
16580;BME280;8402;51.466;6.806;2023-09-30T08:17:45;102418.63;;;18.77;87.91
16580;BME280;8402;51.466;6.806;2023-09-30T08:20:18;102423.66;;;18.75;88.32
16580;BME280;8402;51.466;6.806;2023-09-30T08:22:48;102428.69;;;18.73;88.28
16580;BME280;8402;51.466;6.806;2023-09-30T08:25:18;102425.31;;;18.59;88.58
16580;BME280;8402;51.466;6.806;2023-09-30T08:27:48;102429.50;;;18.56;89.14
16580;BME280;8402;51.466;6.806;2023-09-30T08:30:19;102432.88;;;18.70;89.71
16580;BME280;8402;51.466;6.806;2023-09-30T08:32:49;102428.31;;;18.83;89.76
16580;BME280;8402;51.466;6.806;2023-09-30T08:35:21;102417.44;;;18.95;88.93
16580;BME280;8402;51.466;6.806;2023-09-30T08:37:51;102413.16;;;19.07;88.91
16580;BME280;8402;51.466;6.806;2023-09-30T08:40:21;102412.34;;;19.15;88.22
16580;BME280;8402;51.466;6.806;2023-09-30T08:42:52;102410.22;;;19.12;87.78
16580;BME280;8402;51.466;6.806;2023-09-30T08:45:28;102407.81;;;19.10;87.39
16580;BME280;8402;51.466;6.806;2023-09-30T08:47:59;102407.00;;;19.10;87.29
16580;BME280;8402;51.466;6.806;2023-09-30T08:50:33;102399.22;;;19.12;86.60
16580;BME280;8402;51.466;6.806;2023-09-30T08:53:05;102399.03;;;19.17;87.29
16580;BME280;8402;51.466;6.806;2023-09-30T08:55:36;102407.88;;;19.31;87.23
16580;BME280;8402;51.466;6.806;2023-09-30T08:58:07;102401.03;;;19.37;86.00
16580;BME280;8402;51.466;6.806;2023-09-30T09:00:38;102392.72;;;19.46;86.52
16580;BME280;8402;51.466;6.806;2023-09-30T09:03:08;102384.22;;;19.60;86.29
16580;BME280;8402;51.466;6.806;2023-09-30T09:05:41;102367.28;;;19.70;85.49
16580;BME280;8402;51.466;6.806;2023-09-30T09:08:11;102372.84;;;19.82;85.14
16580;BME280;8402;51.466;6.806;2023-09-30T09:10:53;102373.13;;;19.89;82.12
16580;BME280;8402;51.466;6.806;2023-09-30T09:13:24;102376.41;;;20.03;84.12
16580;BME280;8402;51.466;6.806;2023-09-30T09:18:36;102364.78;;;20.31;82.66
16580;BME280;8402;51.466;6.806;2023-09-30T09:21:16;102374.44;;;20.37;80.71
16580;BME280;8402;51.466;6.806;2023-09-30T09:23:49;102380.94;;;20.53;81.78
16580;BME280;8402;51.466;6.806;2023-09-30T09:26:26;102386.19;;;20.46;80.66
16580;BME280;8402;51.466;6.806;2023-09-30T09:28:57;102380.81;;;20.62;81.76
16580;BME280;8402;51.466;6.806;2023-09-30T09:31:28;102381.75;;;20.78;81.06
16580;BME280;8402;51.466;6.806;2023-09-30T09:33:59;102387.50;;;20.85;80.82
16580;BME280;8402;51.466;6.806;2023-09-30T09:36:41;102385.88;;;20.60;77.60
16580;BME280;8402;51.466;6.806;2023-09-30T09:39:12;102387.81;;;20.47;79.07
16580;BME280;8402;51.466;6.806;2023-09-30T09:41:49;102385.66;;;20.32;78.71
16580;BME280;8402;51.466;6.806;2023-09-30T09:44:21;102388.19;;;20.25;80.10
16580;BME280;8402;51.466;6.806;2023-09-30T09:46:52;102382.88;;;20.20;80.26
16580;BME280;8402;51.466;6.806;2023-09-30T09:49:22;102390.94;;;20.25;80.96
16580;BME280;8402;51.466;6.806;2023-09-30T09:51:55;102387.41;;;20.37;80.38
16580;BME280;8402;51.466;6.806;2023-09-30T09:54:27;102387.97;;;20.42;79.71
16580;BME280;8402;51.466;6.806;2023-09-30T09:57:00;102393.72;;;20.37;79.12
16580;BME280;8402;51.466;6.806;2023-09-30T09:59:30;102394.41;;;20.34;79.23
16580;BME280;8402;51.466;6.806;2023-09-30T10:02:01;102384.03;;;20.52;79.91
16580;BME280;8402;51.466;6.806;2023-09-30T10:04:34;102393.09;;;20.52;78.84
16580;BME280;8402;51.466;6.806;2023-09-30T10:07:09;102401.31;;;20.40;77.28
16580;BME280;8402;51.466;6.806;2023-09-30T10:09:52;102416.69;;;20.41;77.45
16580;BME280;8402;51.466;6.806;2023-09-30T10:12:22;102421.84;;;20.51;76.97
16580;BME280;8402;51.466;6.806;2023-09-30T10:14:53;102416.81;;;20.66;77.54
16580;BME280;8402;51.466;6.806;2023-09-30T10:17:57;102417.84;;;20.73;75.34
16580;BME280;8402;51.466;6.806;2023-09-30T10:20:28;102417.75;;;20.94;75.33
16580;BME280;8402;51.466;6.806;2023-09-30T10:25:38;102404.66;;;21.15;73.43
16580;BME280;8402;51.466;6.806;2023-09-30T10:28:32;102401.78;;;21.36;73.79
16580;BME280;8402;51.466;6.806;2023-09-30T10:33:36;102411.75;;;21.53;71.25
16580;BME280;8402;51.466;6.806;2023-09-30T10:36:06;102415.19;;;21.62;72.43
16580;BME280;8402;51.466;6.806;2023-09-30T10:38:42;102419.69;;;21.55;69.80
16580;BME280;8402;51.466;6.806;2023-09-30T10:41:50;102420.50;;;21.43;71.17
16580;BME280;8402;51.466;6.806;2023-09-30T10:44:34;102425.38;;;21.34;71.17
16580;BME280;8402;51.466;6.806;2023-09-30T10:47:36;102425.09;;;21.27;71.10
16580;BME280;8402;51.466;6.806;2023-09-30T10:50:49;102412.22;;;21.19;72.02
16580;BME280;8402;51.466;6.806;2023-09-30T10:53:24;102412.63;;;21.29;73.07
16580;BME280;8402;51.466;6.806;2023-09-30T10:55:55;102413.75;;;21.28;72.21
16580;BME280;8402;51.466;6.806;2023-09-30T10:58:39;102410.50;;;21.26;72.03
16580;BME280;8402;51.466;6.806;2023-09-30T11:01:09;102409.72;;;21.38;72.80
16580;BME280;8402;51.466;6.806;2023-09-30T11:03:40;102401.19;;;21.43;72.33
16580;BME280;8402;51.466;6.806;2023-09-30T11:06:12;102396.78;;;21.54;71.41
16580;BME280;8402;51.466;6.806;2023-09-30T11:08:51;102397.94;;;21.65;70.82
16580;BME280;8402;51.466;6.806;2023-09-30T11:11:36;102402.03;;;21.71;70.68
16580;BME280;8402;51.466;6.806;2023-09-30T11:14:17;102399.75;;;21.74;69.79
16580;BME280;8402;51.466;6.806;2023-09-30T11:16:47;102387.28;;;21.80;69.96
16580;BME280;8402;51.466;6.806;2023-09-30T11:19:18;102381.06;;;21.83;69.59
16580;BME280;8402;51.466;6.806;2023-09-30T11:21:50;102374.38;;;21.84;67.17
16580;BME280;8402;51.466;6.806;2023-09-30T11:24:24;102378.22;;;21.79;67.59
16580;BME280;8402;51.466;6.806;2023-09-30T11:26:56;102374.63;;;21.79;69.04
16580;BME280;8402;51.466;6.806;2023-09-30T11:29:26;102379.03;;;21.67;67.18
16580;BME280;8402;51.466;6.806;2023-09-30T11:31:56;102370.09;;;21.58;68.51
16580;BME280;8402;51.466;6.806;2023-09-30T11:34:33;102374.91;;;21.61;67.77
16580;BME280;8402;51.466;6.806;2023-09-30T11:37:03;102373.28;;;21.73;68.39
16580;BME280;8402;51.466;6.806;2023-09-30T11:39:35;102366.31;;;21.79;65.72
16580;BME280;8402;51.466;6.806;2023-09-30T11:42:14;102368.38;;;21.94;66.94
16580;BME280;8402;51.466;6.806;2023-09-30T11:44:47;102363.91;;;22.05;67.06
16580;BME280;8402;51.466;6.806;2023-09-30T11:47:28;102363.69;;;22.10;66.44
16580;BME280;8402;51.466;6.806;2023-09-30T11:50:00;102363.63;;;22.22;67.56
16580;BME280;8402;51.466;6.806;2023-09-30T11:52:31;102374.22;;;22.20;67.40
16580;BME280;8402;51.466;6.806;2023-09-30T11:57:38;102360.00;;;22.06;64.47
16580;BME280;8402;51.466;6.806;2023-09-30T12:00:10;102371.31;;;22.01;66.20
16580;BME280;8402;51.466;6.806;2023-09-30T12:02:42;102366.72;;;21.93;66.17
16580;BME280;8402;51.466;6.806;2023-09-30T12:05:12;102356.84;;;21.92;66.53
16580;BME280;8402;51.466;6.806;2023-09-30T12:07:43;102360.16;;;21.97;67.51
16580;BME280;8402;51.466;6.806;2023-09-30T12:10:14;102347.38;;;21.93;66.25
16580;BME280;8402;51.466;6.806;2023-09-30T12:12:46;102341.06;;;21.92;66.29
16580;BME280;8402;51.466;6.806;2023-09-30T12:15:16;102338.41;;;21.96;67.02
16580;BME280;8402;51.466;6.806;2023-09-30T12:17:49;102339.56;;;21.95;66.72
16580;BME280;8402;51.466;6.806;2023-09-30T12:20:19;102334.28;;;21.90;66.94
16580;BME280;8402;51.466;6.806;2023-09-30T12:22:49;102334.72;;;21.92;67.32
16580;BME280;8402;51.466;6.806;2023-09-30T12:25:20;102322.88;;;21.91;67.08
16580;BME280;8402;51.466;6.806;2023-09-30T12:27:54;102321.25;;;21.90;66.47
16580;BME280;8402;51.466;6.806;2023-09-30T12:30:25;102313.53;;;21.96;66.86
16580;BME280;8402;51.466;6.806;2023-09-30T12:32:55;102334.91;;;21.99;67.02
16580;BME280;8402;51.466;6.806;2023-09-30T12:35:25;102345.28;;;22.02;67.07
16580;BME280;8402;51.466;6.806;2023-09-30T12:37:55;102345.34;;;21.90;64.03
16580;BME280;8402;51.466;6.806;2023-09-30T12:40:25;102340.84;;;21.85;65.08
16580;BME280;8402;51.466;6.806;2023-09-30T12:42:59;102340.97;;;21.89;65.11
16580;BME280;8402;51.466;6.806;2023-09-30T12:45:29;102333.22;;;21.94;65.52
16580;BME280;8402;51.466;6.806;2023-09-30T12:47:59;102334.22;;;22.02;66.03
16580;BME280;8402;51.466;6.806;2023-09-30T12:50:29;102326.59;;;22.11;66.11
16580;BME280;8402;51.466;6.806;2023-09-30T12:52:59;102330.78;;;22.21;66.12
16580;BME280;8402;51.466;6.806;2023-09-30T12:55:29;102320.03;;;22.32;65.51
16580;BME280;8402;51.466;6.806;2023-09-30T12:58:01;102317.69;;;22.34;63.77
16580;BME280;8402;51.466;6.806;2023-09-30T13:00:32;102326.00;;;22.34;64.93
16580;BME280;8402;51.466;6.806;2023-09-30T13:03:03;102319.22;;;22.31;64.01
16580;BME280;8402;51.466;6.806;2023-09-30T13:05:34;102313.69;;;22.31;63.71
16580;BME280;8402;51.466;6.806;2023-09-30T13:08:06;102312.28;;;22.37;64.45
16580;BME280;8402;51.466;6.806;2023-09-30T13:10:38;102303.69;;;22.42;64.08
16580;BME280;8402;51.466;6.806;2023-09-30T13:13:10;102303.00;;;22.45;64.01
16580;BME280;8402;51.466;6.806;2023-09-30T13:15:40;102293.16;;;22.48;64.17
16580;BME280;8402;51.466;6.806;2023-09-30T13:18:10;102292.72;;;22.46;64.36
16580;BME280;8402;51.466;6.806;2023-09-30T13:20:40;102292.72;;;22.46;63.45
16580;BME280;8402;51.466;6.806;2023-09-30T13:23:10;102290.47;;;22.36;62.25
16580;BME280;8402;51.466;6.806;2023-09-30T13:25:40;102293.06;;;22.29;63.68
16580;BME280;8402;51.466;6.806;2023-09-30T13:28:13;102284.34;;;22.27;63.46
16580;BME280;8402;51.466;6.806;2023-09-30T13:30:43;102283.63;;;22.30;64.18
16580;BME280;8402;51.466;6.806;2023-09-30T13:33:13;102284.50;;;22.34;64.22
16580;BME280;8402;51.466;6.806;2023-09-30T13:35:45;102285.31;;;22.34;63.91
16580;BME280;8402;51.466;6.806;2023-09-30T13:38:15;102290.84;;;22.34;64.10
16580;BME280;8402;51.466;6.806;2023-09-30T13:40:46;102275.16;;;22.38;63.86